createdAt,value
2023-09-13T00:03:46.081Z,100.00
2023-09-13T00:07:48.813Z,100.00
2023-09-13T00:11:51.230Z,100.00
2023-09-13T00:15:53.581Z,100.00
2023-09-13T00:19:57.509Z,100.00
2023-09-13T00:24:00.110Z,100.00
2023-09-13T00:28:02.241Z,100.00
2023-09-13T00:32:04.711Z,100.00
2023-09-13T00:36:06.891Z,100.00
2023-09-13T00:40:09.794Z,100.00
2023-09-13T00:44:11.976Z,100.00
2023-09-13T00:48:16.398Z,100.00
2023-09-13T00:52:18.874Z,100.00
2023-09-13T00:56:21.277Z,100.00
2023-09-13T01:00:25.586Z,100.00
2023-09-13T01:04:30.797Z,100.00
2023-09-13T01:08:49.142Z,100.00
2023-09-13T01:12:56.886Z,100.00
2023-09-13T01:17:24.720Z,100.00
2023-09-13T01:21:41.443Z,100.00
2023-09-13T01:26:34.677Z,100.00
2023-09-13T01:30:38.555Z,100.00
2023-09-13T01:34:40.905Z,100.00
2023-09-13T01:38:43.491Z,100.00
2023-09-13T01:42:47.433Z,100.00
2023-09-13T01:46:52.319Z,100.00
2023-09-13T01:50:55.245Z,100.00
2023-09-13T01:54:57.342Z,100.00
2023-09-13T01:58:59.497Z,100.00
2023-09-13T02:03:01.748Z,100.00
2023-09-13T02:07:04.752Z,100.00
2023-09-13T02:11:10.002Z,100.00
2023-09-13T02:15:13.812Z,100.00
2023-09-13T02:19:15.910Z,100.00
2023-09-13T02:23:18.029Z,100.00
2023-09-13T02:27:23.876Z,100.00
2023-09-13T02:31:29.499Z,100.00
2023-09-13T02:35:32.271Z,100.00
2023-09-13T02:39:36.776Z,100.00
2023-09-13T02:43:41.202Z,100.00
2023-09-13T02:47:44.431Z,100.00
2023-09-13T02:51:48.582Z,100.00
2023-09-13T02:55:50.726Z,100.00
2023-09-13T02:59:53.271Z,100.00
2023-09-13T03:03:55.373Z,100.00
2023-09-13T03:07:58.245Z,100.00
2023-09-13T03:12:00.572Z,100.00
2023-09-13T03:16:03.074Z,100.00
2023-09-13T03:20:05.730Z,100.00
2023-09-13T03:24:12.135Z,100.00
2023-09-13T03:28:14.779Z,100.00
2023-09-13T03:32:17.491Z,100.00
2023-09-13T03:36:21.692Z,100.00
2023-09-13T03:40:28.321Z,100.00
2023-09-13T03:44:30.419Z,100.00
2023-09-13T03:48:33.833Z,100.00
2023-09-13T03:52:35.960Z,100.00
2023-09-13T03:56:38.969Z,100.00
2023-09-13T04:00:41.646Z,100.00
2023-09-13T04:04:43.846Z,100.00
2023-09-13T04:08:46.079Z,100.00
2023-09-13T04:12:49.507Z,100.00
2023-09-13T04:16:52.216Z,100.00
2023-09-13T04:20:54.391Z,100.00
2023-09-13T04:24:56.477Z,100.00
2023-09-13T04:28:58.665Z,100.00
2023-09-13T04:33:03.446Z,100.00
2023-09-13T04:37:07.451Z,100.00
2023-09-13T04:41:14.620Z,100.00
2023-09-13T04:45:17.125Z,100.00
2023-09-13T04:49:19.648Z,100.00
2023-09-13T04:53:22.817Z,100.00
2023-09-13T04:57:24.937Z,100.00
2023-09-13T05:01:28.108Z,100.00
2023-09-13T05:05:31.503Z,100.00
2023-09-13T05:09:34.348Z,100.00
2023-09-13T05:13:40.100Z,100.00
2023-09-13T05:17:42.457Z,100.00
2023-09-13T05:21:44.665Z,100.00
2023-09-13T05:25:47.685Z,100.00
2023-09-13T05:29:49.830Z,100.00
2023-09-13T05:33:51.948Z,100.00
2023-09-13T05:37:54.143Z,100.00
2023-09-13T05:41:57.295Z,100.00
2023-09-13T05:45:59.577Z,100.00
2023-09-13T05:50:01.723Z,100.00
2023-09-13T05:54:04.810Z,100.00
2023-09-13T05:58:06.969Z,100.00
2023-09-13T06:02:10.624Z,100.00
2023-09-13T06:06:12.997Z,100.00
2023-09-13T06:10:15.555Z,100.00
2023-09-13T06:14:19.886Z,100.00
2023-09-13T06:18:22.023Z,100.00
2023-09-13T06:22:24.656Z,100.00
2023-09-13T06:26:27.071Z,100.00
2023-09-13T06:30:29.269Z,100.00
2023-09-13T06:34:31.672Z,100.00
2023-09-13T06:38:34.551Z,100.00
2023-09-13T06:42:54.239Z,100.00
2023-09-13T06:47:04.664Z,100.00
2023-09-13T06:55:13.058Z,100.00
2023-09-13T06:59:18.069Z,100.00
2023-09-13T07:03:22.588Z,100.00
2023-09-13T07:07:25.565Z,100.00
2023-09-13T07:11:28.098Z,100.00
2023-09-13T07:15:30.294Z,100.00
2023-09-13T07:19:32.625Z,100.00
2023-09-13T07:23:35.394Z,100.00
2023-09-13T07:27:37.522Z,100.00
2023-09-13T07:31:39.806Z,100.00
2023-09-13T07:35:41.898Z,100.00
2023-09-13T07:39:44.011Z,100.00
2023-09-13T07:43:46.139Z,100.00
2023-09-13T07:47:48.489Z,100.00
2023-09-13T07:51:50.596Z,100.00
2023-09-13T07:55:52.692Z,100.00
2023-09-13T07:59:57.575Z,100.00
2023-09-13T08:03:59.734Z,100.00
2023-09-13T08:08:02.179Z,100.00
2023-09-13T08:12:04.760Z,100.00
2023-09-13T08:16:07.104Z,100.00
2023-09-13T08:20:10.269Z,100.00
2023-09-13T08:24:12.525Z,100.00
2023-09-13T08:28:14.772Z,100.00
2023-09-13T08:32:16.978Z,100.00
2023-09-13T08:36:19.052Z,100.00
2023-09-13T08:40:21.533Z,100.00
2023-09-13T08:44:26.321Z,100.00
2023-09-13T08:48:29.301Z,100.00
2023-09-13T08:52:32.855Z,100.00
2023-09-13T08:56:36.551Z,99.60
2023-09-13T09:00:41.580Z,98.11
2023-09-13T09:04:44.733Z,98.39
2023-09-13T09:08:50.804Z,96.93
2023-09-13T09:12:58.226Z,95.19
2023-09-13T09:17:02.488Z,95.79
2023-09-13T09:21:05.411Z,95.88
2023-09-13T09:25:12.922Z,94.25
2023-09-13T09:29:19.559Z,95.30
2023-09-13T09:33:29.920Z,91.43
2023-09-13T09:37:33.965Z,92.38
2023-09-13T09:41:38.045Z,91.94
2023-09-13T09:45:40.215Z,91.35
2023-09-13T09:49:50.788Z,89.96
2023-09-13T09:53:53.856Z,89.31
2023-09-13T09:57:56.203Z,87.84
2023-09-13T10:01:59.715Z,87.24
2023-09-13T10:06:04.655Z,76.91
2023-09-13T10:10:09.741Z,87.26
2023-09-13T10:14:26.087Z,82.01
2023-09-13T10:18:32.196Z,82.55
2023-09-13T10:22:37.076Z,82.83
2023-09-13T10:26:41.054Z,82.04
2023-09-13T10:30:48.128Z,82.91
2023-09-13T10:34:56.003Z,80.46
2023-09-13T10:39:18.966Z,74.36
2023-09-13T10:43:22.637Z,77.24
2023-09-13T10:47:24.937Z,76.47
2023-09-13T10:51:30.785Z,75.51
2023-09-13T10:55:34.842Z,75.13
2023-09-13T10:59:37.597Z,74.37
2023-09-13T11:03:41.904Z,73.08
2023-09-13T11:07:48.111Z,72.68
2023-09-13T11:11:55.235Z,71.60
2023-09-13T11:16:00.729Z,71.77
2023-09-13T11:20:22.699Z,62.53
2023-09-13T11:25:02.034Z,63.49
2023-09-13T11:29:22.299Z,63.52
2023-09-13T11:33:24.616Z,67.36
2023-09-13T11:37:28.228Z,65.55
2023-09-13T11:41:52.746Z,61.77
2023-09-13T11:45:58.721Z,65.54
2023-09-13T11:50:10.925Z,63.83
2023-09-13T11:54:17.655Z,64.35
2023-09-13T11:58:36.533Z,61.62
2023-09-13T12:02:46.707Z,61.57
2023-09-13T12:06:55.188Z,61.44
2023-09-13T12:11:00.652Z,61.52
2023-09-13T12:15:04.840Z,59.59
2023-09-13T12:19:12.438Z,58.53
2023-09-13T12:23:18.296Z,54.22
2023-09-13T12:27:21.039Z,57.37
2023-09-13T12:31:23.373Z,55.95
2023-09-13T12:35:25.612Z,55.05
2023-09-13T12:39:27.967Z,54.54
2023-09-13T12:43:31.054Z,53.63
2023-09-13T12:47:33.972Z,53.33
2023-09-13T12:51:37.486Z,52.63
2023-09-13T12:55:40.245Z,52.55
2023-09-13T12:59:43.017Z,52.47
2023-09-13T13:04:02.790Z,48.55
2023-09-13T13:12:15.274Z,47.90
2023-09-13T13:16:19.595Z,52.68
2023-09-13T13:20:27.589Z,52.48
2023-09-13T13:24:30.351Z,52.64
2023-09-13T13:28:32.669Z,53.21
2023-09-13T13:32:34.847Z,53.84
2023-09-13T13:36:36.988Z,54.07
2023-09-13T13:40:39.149Z,53.78
2023-09-13T13:44:41.313Z,53.98
2023-09-13T13:48:45.059Z,54.32
2023-09-13T13:52:48.112Z,53.88
2023-09-13T13:56:50.998Z,53.67
2023-09-13T14:00:54.717Z,53.50
2023-09-13T14:04:57.009Z,54.07
2023-09-13T14:09:00.228Z,54.14
2023-09-13T14:13:02.328Z,51.89
2023-09-13T14:17:05.331Z,53.76
2023-09-13T14:21:07.496Z,53.67
2023-09-13T14:25:10.881Z,53.88
2023-09-13T14:29:16.050Z,53.54
2023-09-13T14:33:19.466Z,53.38
2023-09-13T14:37:21.620Z,53.16
2023-09-13T14:41:26.047Z,54.16
2023-09-13T14:45:28.485Z,53.94
2023-09-13T14:49:30.713Z,53.64
2023-09-13T14:53:33.472Z,53.28
2023-09-13T14:57:36.331Z,52.23
2023-09-13T15:01:38.620Z,51.64
2023-09-13T15:05:40.768Z,51.66
2023-09-13T15:09:43.152Z,51.14
2023-09-13T15:13:47.176Z,51.45
2023-09-13T15:17:49.441Z,51.26
2023-09-13T15:21:51.611Z,51.45
2023-09-13T15:25:53.870Z,51.34
2023-09-13T15:29:56.238Z,51.05
2023-09-13T15:33:59.331Z,51.15
2023-09-13T15:38:01.446Z,50.83
2023-09-13T15:42:03.834Z,51.24
2023-09-13T15:46:07.569Z,51.37
2023-09-13T15:50:10.038Z,51.70
2023-09-13T15:54:12.220Z,51.17
2023-09-13T15:58:14.469Z,49.75
2023-09-13T16:02:17.123Z,50.56
2023-09-13T16:06:19.463Z,51.12
2023-09-13T16:10:25.386Z,51.44
2023-09-13T16:14:35.856Z,51.43
2023-09-13T16:18:38.247Z,53.63
2023-09-13T16:22:40.734Z,54.33
2023-09-13T16:26:42.840Z,54.95
2023-09-13T16:30:45.410Z,55.41
2023-09-13T16:34:47.563Z,55.96
2023-09-13T16:38:49.695Z,56.53
2023-09-13T16:42:52.200Z,56.33
2023-09-13T16:46:54.373Z,55.88
2023-09-13T16:50:56.532Z,54.91
2023-09-13T16:54:58.791Z,54.79
2023-09-13T16:59:00.917Z,54.84
2023-09-13T17:03:03.212Z,55.14
2023-09-13T17:07:08.082Z,55.17
2023-09-13T17:11:14.297Z,55.82
2023-09-13T17:15:16.934Z,56.95
2023-09-13T17:19:19.272Z,57.29
2023-09-13T17:23:22.172Z,58.05
2023-09-13T17:27:24.361Z,58.98
2023-09-13T17:31:29.813Z,60.58
2023-09-13T17:35:32.102Z,61.68
2023-09-13T17:39:34.279Z,62.89
2023-09-13T17:43:36.457Z,64.32
2023-09-13T17:47:38.536Z,65.34
2023-09-13T17:51:40.690Z,66.41
2023-09-13T17:55:42.829Z,67.57
2023-09-13T17:59:45.130Z,69.18
2023-09-13T18:03:47.480Z,72.87
2023-09-13T18:07:49.949Z,73.32
2023-09-13T18:11:54.135Z,73.80
2023-09-13T18:15:59.769Z,76.21
2023-09-13T18:20:01.988Z,76.62
2023-09-13T18:24:04.596Z,76.66
2023-09-13T18:28:07.070Z,76.70
2023-09-13T18:32:09.210Z,76.83
2023-09-13T18:36:11.296Z,79.44
2023-09-13T18:40:13.462Z,85.56
2023-09-13T18:44:16.409Z,88.23
2023-09-13T18:48:18.640Z,88.05
2023-09-13T18:52:21.060Z,87.15
2023-09-13T18:56:23.383Z,87.25
2023-09-13T19:00:25.582Z,87.22
2023-09-13T19:04:29.285Z,89.35
2023-09-13T19:08:32.664Z,88.96
2023-09-13T19:12:34.688Z,89.91
2023-09-13T19:16:38.257Z,91.24
2023-09-13T19:20:46.577Z,93.30
2023-09-13T19:24:56.700Z,92.93
2023-09-13T19:28:59.839Z,92.35
2023-09-13T19:33:04.435Z,93.21
2023-09-13T19:37:06.631Z,94.42
2023-09-13T19:41:12.186Z,98.25
2023-09-13T19:45:14.469Z,96.60
2023-09-13T19:49:16.884Z,95.98
2023-09-13T19:53:19.000Z,95.14
2023-09-13T19:57:21.681Z,96.03
2023-09-13T20:01:26.669Z,96.05
2023-09-13T20:05:28.848Z,96.49
2023-09-13T20:09:31.160Z,96.92
2023-09-13T20:13:33.625Z,97.42
2023-09-13T20:17:35.834Z,97.72
2023-09-13T20:21:38.005Z,98.42
2023-09-13T20:25:40.225Z,99.29
2023-09-13T20:29:43.125Z,99.41
2023-09-13T20:33:47.171Z,99.82
2023-09-13T20:37:50.410Z,99.78
2023-09-13T20:41:53.134Z,99.92
2023-09-13T20:45:56.677Z,100.00
2023-09-13T20:49:59.323Z,100.00
2023-09-13T20:54:01.532Z,100.00
2023-09-13T20:58:04.133Z,100.00
2023-09-13T21:02:06.314Z,100.00
2023-09-13T21:06:08.745Z,100.00
2023-09-13T21:10:10.936Z,100.00
2023-09-13T21:14:13.061Z,100.00
2023-09-13T21:18:15.256Z,100.00
2023-09-13T21:22:17.380Z,100.00
2023-09-13T21:26:19.664Z,100.00
2023-09-13T21:30:21.839Z,100.00
2023-09-13T21:34:24.871Z,100.00
2023-09-13T21:38:27.816Z,100.00
2023-09-13T21:42:29.983Z,100.00
2023-09-13T21:46:32.107Z,100.00
2023-09-13T21:50:34.235Z,100.00
2023-09-13T21:54:46.705Z,100.00
2023-09-13T21:58:48.913Z,100.00
2023-09-13T22:02:51.132Z,100.00
2023-09-13T22:06:54.650Z,100.00
2023-09-13T22:11:08.624Z,100.00
2023-09-13T22:15:11.715Z,100.00
2023-09-13T22:19:14.808Z,100.00
2023-09-13T22:23:17.092Z,100.00
2023-09-13T22:27:19.243Z,100.00
2023-09-13T22:31:21.485Z,100.00
2023-09-13T22:35:23.763Z,100.00
2023-09-13T22:39:26.218Z,100.00
2023-09-13T22:43:28.490Z,100.00
2023-09-13T22:47:30.610Z,100.00
2023-09-13T22:51:33.005Z,100.00
2023-09-13T22:55:35.922Z,100.00
2023-09-13T22:59:38.102Z,100.00
2023-09-13T23:03:46.154Z,100.00
2023-09-13T23:07:55.124Z,100.00
2023-09-13T23:11:57.263Z,100.00
2023-09-13T23:16:05.741Z,100.00
2023-09-13T23:20:12.447Z,100.00
2023-09-13T23:24:16.370Z,100.00
2023-09-13T23:28:18.434Z,100.00
2023-09-13T23:32:21.141Z,100.00
2023-09-13T23:36:23.412Z,100.00
2023-09-13T23:40:25.494Z,100.00
2023-09-13T23:44:28.102Z,100.00
2023-09-13T23:48:30.938Z,100.00
2023-09-13T23:52:33.092Z,100.00
2023-09-13T23:56:35.147Z,100.00
